• Join FlightAware (Why Join?)
  • Login
  • US Flag 
Rudolph Flight #1: Arrived! 
07:45PM EST


 

Airport Tracker/Info


-or-


 

Live Flight TrackerFlight Track Log ✈ SWA3355 ✈ 27-Dec-2013 ✈ KBWI - KPWM

Flight Track Log - Related Links

Times and Time Zones

All times are in EST time to prevent confusion due to time zone crossing. See the SWA3355 flight status page for this flight to view local times or setup timezone preferences in your user account.

Time Position Orientation Groundspeed Altitude Reporting Facility
EST Latitude Longitude Course Direction KTS MPH feet Rate Location/Type
04:19PM 39.1667 -76.7500 262° West 210 242 4,000  Level Potomac TRACON
04:20PM 39.1333 -76.6833 123° Southeast 290 334 5,800 2,400 Climbing Potomac TRACON
04:22PM 39.1397 -76.4481 88° East 311 358 11,900 2,520 Climbing Washington Center
04:23PM 39.1444 -76.3356 87° East 326 375 14,000 1,560 Climbing Washington Center
04:24PM 39.1514 -76.2019 86° East 354 407 15,100 2,160 Climbing Washington Center
04:25PM 39.1750 -76.0494 79° East 386 444 18,400 3,000 Climbing Washington Center
04:26PM 39.1942 -75.9050 80° East 397 457 21,200 2,640 Climbing Washington Center
04:27PM 39.2653 -75.7900 51° Northeast 391 450 23,600 2,160 Climbing Washington Center
04:28PM 39.3508 -75.6775 45° Northeast 402 463 25,600 1,800 Climbing Washington Center
04:29PM 39.4406 -75.5619 45° Northeast 424 488 27,300 1,560 Climbing Washington Center
04:30PM 39.5383 -75.4356 45° Northeast 456 525 28,800 1,560 Climbing Washington Center
04:32PM 39.7400 -75.1606 46° Northeast 519 597 32,100 1,620 Climbing New York Center
04:33PM 39.8414 -75.0100 49° Northeast 539 620 33,700 1,440 Climbing New York Center
04:34PM 39.9464 -74.8703 46° Northeast 550 633 35,000 600 Climbing New York Center
04:35PM 40.0386 -74.7375 48° Northeast 545 627 35,000  Level New York Center
04:36PM 40.1497 -74.5864 46° Northeast 545 627 35,000  Level New York Center
04:38PM 40.2983 -74.3750 47° Northeast 544 626 35,000  Level Boston Center
04:39PM 40.4181 -74.2044 47° Northeast 533 613 35,000  Level Boston Center
04:40PM 40.5178 -74.0633 47° Northeast 530 610 35,000  Level Boston Center
04:41PM 40.6067 -73.9364 47° Northeast 528 608 35,000  Level Boston Center
04:42PM 40.7008 -73.7878 50° Northeast 528 608 35,000  Level Boston Center
04:43PM 40.7933 -73.6339 52° Northeast 534 615 35,000  Level Boston Center
04:44PM 40.9036 -73.4492 52° Northeast 533 613 35,000  Level Boston Center
04:45PM 40.9797 -73.3222 52° Northeast 532 612 35,000  Level Boston Center
04:46PM 41.0897 -73.1369 52° Northeast 536 617 35,000  Level Boston Center
04:47PM 41.1806 -72.9814 52° Northeast 536 617 35,000  Level Boston Center
04:48PM 41.2742 -72.8225 52° Northeast 538 619 35,000  Level Boston Center
04:49PM 41.3669 -72.6639 52° Northeast 540 621 35,000  Level Boston Center
04:50PM 41.4589 -72.5061 52° Northeast 538 619 35,000  Level Boston Center
04:51PM 41.5456 -72.3561 52° Northeast 536 617 35,000  Level Boston Center
04:52PM 41.6353 -72.1994 53° Northeast 534 615 35,000  Level Boston Center
04:53PM 41.7239 -72.0414 53° Northeast 534 615 35,000  Level Boston Center
04:54PM 41.8133 -71.8836 53° Northeast 535 616 35,000  Level Boston Center
04:55PM 41.9197 -71.6972 52° Northeast 531 611 35,000 -300 Level Boston Center
04:56PM 42.0078 -71.5386 53° Northeast 532 612 34,400 -840 Descending Boston Center
04:57PM 42.0961 -71.3833 52° Northeast 528 608 33,400 -960 Descending Boston Center
04:58PM 42.1814 -71.2314 53° Northeast 517 595 32,500 -1,860 Descending Boston Center
04:59PM 42.2683 -71.0756 53° Northeast 509 586 29,600 -2,880 Descending Boston Center
05:00PM 42.3533 -70.9233 53° Northeast 505 581 26,600 -2,760 Descending Boston Center
05:01PM 42.4303 -70.7861 53° Northeast 485 558 24,100 -1,320 Descending Boston Center
05:02PM 42.5367 -70.7164 26° Northeast 427 491 24,000 -1,020 Descending Boston Center
05:03PM 42.6475 -70.6547 22° Northeast 412 474 22,100 -2,040 Descending Boston Center
05:04PM 42.7497 -70.5939 24° Northeast 403 464 19,800 -2,340 Descending Boston Center
05:05PM 42.8600 -70.5261 24° Northeast 376 433 17,300 -2,460 Descending Boston Center
05:06PM 42.9514 -70.4692 25° Northeast 365 420 14,900 -2,340 Descending Boston Center
05:07PM 43.0378 -70.4108 26° Northeast 351 404 12,700 -2,400 Descending Boston Center
05:08PM 43.1214 -70.3367 33° Northeast 349 402 10,000 -1,860 Descending Boston Center
05:09PM 43.1931 -70.2761 32° Northeast 287 330 8,900 -1,500 Descending Boston Center
05:10PM 43.2558 -70.2219 32° Northeast 269 310 7,000 -1,680 Descending Boston Center
05:11PM 43.3197 -70.1711 30° Northeast 268 308 5,500 -1,500 Descending Boston Center
05:12PM 43.3881 -70.1586 North 246 283 4,000 -1,440 Descending Boston Center
05:13PM 43.4589 -70.1436 North 239 275 2,700 -1,020 Descending Boston Center
05:14PM 43.5217 -70.1300 North 230 265 2,000 -360 Descending Boston Center
05:15PM 43.5728 -70.1358 355° North 183 211 2,000 -120 Level Boston Center
05:16PM 43.6147 -70.1553 341° North 159 183 1,800 -240 Descending Boston Center
05:17PM 43.6381 -70.1911 312° West 138 159 1,600 -480 Descending Boston Center
05:18PM 43.6408 -70.2383 275° West 117 135 900 -660 Descending Boston Center
05:19PM 43.6439 -70.2822 276° West 115 132 300 4,920 Descending Boston Center
05:20PM 43.6461 -70.3236 274° West 117 135 11,000 10,680 Climbing Boston Center